Time;durP1;ratioP1;P1;durP2;ratioP2;P2;SDS_P1;SDS_P2;PMS_P1;PMS_P2;Temp;Humidity;BMP_temperature;BMP_pressure;BME280_temperature;BME280_humidity;BME280_pressure;Samples;Min_cycle;Max_cycle;Signal;HPM_P1;HPM_P2
2024/01/02 00:00:53;;;;;;;;;;;;;;;;;;5126223;28;19944;-61
2024/01/02 00:03:24;;;;;;;;;;;;;;;;;;5126472;28;19918;-61
2024/01/02 00:05:55;;;;;;;;;;;;;;;;;;5142478;28;19926;-61
2024/01/02 00:08:26;;;;;;;;;;;;;;;;;;5126391;28;20029;-62
2024/01/02 00:10:57;;;;;;;;;;;;;;;;;;5142445;28;20433;-61
2024/01/02 00:13:28;;;;;;;;;;;;;;;;;;5141604;28;19918;-63
2024/01/02 00:16:02;;;;;;;;;;;;;;;;;;5142728;28;19941;-63
2024/01/02 00:18:33;;;;;;;;;;;;;;;;;;5125972;28;19933;-63
2024/01/02 00:21:04;;;;;;;;;;;;;;;;;;5126393;28;20197;-62
2024/01/02 00:23:36;;;;;;;;;;;;;;;;;;5142633;28;19925;-63
2024/01/02 00:26:07;;;;;;;;;;;;;;;;;;5127273;28;20378;-62
2024/01/02 00:28:38;;;;;;;;;;;;;;;;;;5142061;28;20020;-64
2024/01/02 00:31:09;;;;;;;;;;;;;;;;;;5142403;28;20373;-63
2024/01/02 00:33:40;;;;;;;;;;;;;;;;;;5126197;28;19925;-63
2024/01/02 00:36:11;;;;;;;;;;;;;;;;;;5142008;28;19918;-63
2024/01/02 00:38:42;;;;;;;;;;;;;;;;;;5142406;28;20512;-60
2024/01/02 00:41:13;;;;;;;;;;;;;;;;;;5124331;28;20009;-59
2024/01/02 00:43:44;;;;;;;;;;;;;;;;;;5125982;28;20341;-59
2024/01/02 00:46:15;;;;;;;;;;;;;;;;;;5141838;28;19941;-60
2024/01/02 00:48:46;;;;;;;;;;;;;;;;;;5127461;28;19925;-63
2024/01/02 00:51:17;;;;;;;;;;;;;;;;;;5140227;28;19918;-59
2024/01/02 00:53:48;;;;;;;;;;;;;;;;;;5142100;28;19918;-58
2024/01/02 00:56:19;;;;;;;;;;;;;;;;;;5125510;28;19929;-58
2024/01/02 00:58:50;;;;;;;;;;;;;;;;;;5141543;28;19917;-58
2024/01/02 01:01:21;;;;;;;;;;;;;;;;;;5125921;28;19929;-58
2024/01/02 01:03:52;;;;;;;;;;;;;;;;;;5126640;28;20008;-59
2024/01/02 01:06:23;;;;;;;;;;;;;;;;;;5125555;28;19976;-58
2024/01/02 01:08:54;;;;;;;;;;;;;;;;;;5141008;28;19969;-59
2024/01/02 01:11:25;;;;;;;;;;;;;;;;;;5125505;28;19922;-57
2024/01/02 01:13:56;;;;;;;;;;;;;;;;;;5141631;28;20238;-59
2024/01/02 01:16:27;;;;;;;;;;;;;;;;;;5125376;28;19928;-61
2024/01/02 01:18:58;;;;;;;;;;;;;;;;;;5127951;28;20272;-59
2024/01/02 01:21:29;;;;;;;;;;;;;;;;;;5140970;28;19921;-60
2024/01/02 01:24:00;;;;;;;;;;;;;;;;;;5125636;28;20345;-57
2024/01/02 01:26:31;;;;;;;;;;;;;;;;;;5141678;28;19922;-58
2024/01/02 01:29:02;;;;;;;;;;;;;;;;;;5140954;28;20273;-59
2024/01/02 01:31:34;;;;;;;;;;;;;;;;;;5125105;28;20005;-59
2024/01/02 01:34:05;;;;;;;;;;;;;;;;;;5125380;28;19918;-58
2024/01/02 01:36:36;;;;;;;;;;;;;;;;;;5141806;28;19932;-62
2024/01/02 01:39:07;;;;;;;;;;;;;;;;;;5141168;28;19918;-62
2024/01/02 01:41:38;;;;;;;;;;;;;;;;;;5125268;28;19974;-64
2024/01/02 01:44:09;;;;;;;;;;;;;;;;;;5125434;28;19980;-62
2024/01/02 01:46:40;;;;;;;;;;;;;;;;;;5144406;28;19972;-63
2024/01/02 01:49:11;;;;;;;;;;;;;;;;;;5141146;28;19964;-63
2024/01/02 01:51:42;;;;;;;;;;;;;;;;;;5141505;28;20012;-63
2024/01/02 01:54:13;;;;;;;;;;;;;;;;;;5124918;28;19919;-63
2024/01/02 01:56:44;;;;;;;;;;;;;;;;;;5141408;28;19933;-64
2024/01/02 01:59:15;;;;;;;;;;;;;;;;;;5140862;28;19929;-64
2024/01/02 02:01:46;;;;;;;;;;;;;;;;;;5125039;28;20270;-63
2024/01/02 02:04:17;;;;;;;;;;;;;;;;;;5125362;28;19968;-61
2024/01/02 02:06:48;;;;;;;;;;;;;;;;;;5130166;28;19922;-63
2024/01/02 02:09:19;;;;;;;;;;;;;;;;;;5141227;28;19941;-63
2024/01/02 02:11:50;;;;;;;;;;;;;;;;;;5123427;28;19970;-62
2024/01/02 02:14:21;;;;;;;;;;;;;;;;;;5147574;28;20049;-61
2024/01/02 02:16:52;;;;;;;;;;;;;;;;;;5141057;28;19926;-61
2024/01/02 02:19:23;;;;;;;;;;;;;;;;;;5141360;28;19922;-64
2024/01/02 02:21:54;;;;;;;;;;;;;;;;;;5145092;28;19925;-64
2024/01/02 02:24:25;;;;;;;;;;;;;;;;;;5128101;28;19961;-65
2024/01/02 02:26:56;;;;;;;;;;;;;;;;;;5152085;28;20285;-59
2024/01/02 02:29:27;;;;;;;;;;;;;;;;;;5144732;28;19922;-59
2024/01/02 02:31:58;;;;;;;;;;;;;;;;;;5144458;28;19944;-59
2024/01/02 02:34:30;;;;;;;;;;;;;;;;;;5144332;28;19926;-59
2024/01/02 02:37:02;;;;;;;;;;;;;;;;;;5144715;28;19918;-59
2024/01/02 02:39:33;;;;;;;;;;;;;;;;;;5130323;28;19926;-60
2024/01/02 02:42:04;;;;;;;;;;;;;;;;;;5144297;28;20255;-61
2024/01/02 02:44:35;;;;;;;;;;;;;;;;;;5146384;28;19914;-62
2024/01/02 02:47:06;;;;;;;;;;;;;;;;;;5140561;28;20374;-62
2024/01/02 02:49:37;;;;;;;;;;;;;;;;;;5141467;28;19968;-62
2024/01/02 02:52:08;;;;;;;;;;;;;;;;;;5144265;28;20373;-63
2024/01/02 02:54:39;;;;;;;;;;;;;;;;;;5143962;28;19918;-63
2024/01/02 02:57:10;;;;;;;;;;;;;;;;;;5144137;28;19925;-62
2024/01/02 02:59:41;;;;;;;;;;;;;;;;;;5127837;28;19925;-63
2024/01/02 03:02:12;;;;;;;;;;;;;;;;;;5142116;28;19918;-64
2024/01/02 03:04:43;;;;;;;;;;;;;;;;;;5127747;28;19941;-62
2024/01/02 03:07:14;;;;;;;;;;;;;;;;;;5143357;28;19918;-63
2024/01/02 03:09:45;;;;;;;;;;;;;;;;;;5129290;28;19929;-63
2024/01/02 03:12:16;;;;;;;;;;;;;;;;;;5148122;28;20309;-62
2024/01/02 03:14:47;;;;;;;;;;;;;;;;;;5143474;28;19918;-58
2024/01/02 03:17:18;;;;;;;;;;;;;;;;;;5143856;28;20334;-58
2024/01/02 03:19:49;;;;;;;;;;;;;;;;;;5143169;28;19918;-58
2024/01/02 03:22:20;;;;;;;;;;;;;;;;;;5127673;28;19925;-58
2024/01/02 03:24:51;;;;;;;;;;;;;;;;;;5143330;28;20373;-58
2024/01/02 03:27:22;;;;;;;;;;;;;;;;;;5127687;28;19922;-58
2024/01/02 03:29:53;;;;;;;;;;;;;;;;;;5142954;28;19929;-58
2024/01/02 03:32:24;;;;;;;;;;;;;;;;;;5142633;28;19914;-63
2024/01/02 03:34:56;;;;;;;;;;;;;;;;;;5143728;28;19945;-62
2024/01/02 03:37:27;;;;;;;;;;;;;;;;;;5150373;28;19929;-61
2024/01/02 03:39:58;;;;;;;;;;;;;;;;;;5155793;28;20162;-62
2024/01/02 03:42:29;;;;;;;;;;;;;;;;;;5143244;28;19922;-63
2024/01/02 03:45:00;;;;;;;;;;;;;;;;;;5149209;28;20027;-63
2024/01/02 03:47:31;;;;;;;;;;;;;;;;;;5143495;28;20009;-63
2024/01/02 03:50:02;;;;;;;;;;;;;;;;;;5142826;28;20028;-59
2024/01/02 03:52:34;;;;;;;;;;;;;;;;;;5143347;28;20061;-58
2024/01/02 03:55:05;;;;;;;;;;;;;;;;;;5142651;28;19928;-58
2024/01/02 03:57:36;;;;;;;;;;;;;;;;;;5142923;28;19918;-59
2024/01/02 04:00:08;;;;;;;;;;;;;;;;;;5142507;28;19922;-59
2024/01/02 04:02:39;;;;;;;;;;;;;;;;;;5123112;28;20326;-59
2024/01/02 04:05:10;;;;;;;;;;;;;;;;;;5142321;28;19922;-59
2024/01/02 04:07:41;;;;;;;;;;;;;;;;;;5142523;28;20004;-59
2024/01/02 04:10:12;;;;;;;;;;;;;;;;;;5125275;28;19958;-59
2024/01/02 04:12:43;;;;;;;;;;;;;;;;;;5124423;28;19962;-59
2024/01/02 04:15:14;;;;;;;;;;;;;;;;;;5126817;28;19918;-59
2024/01/02 04:17:45;;;;;;;;;;;;;;;;;;5142668;28;19918;-59
2024/01/02 04:20:16;;;;;;;;;;;;;;;;;;5126606;28;19922;-59
2024/01/02 04:22:53;;;;;;;;;;;;;;;;;;5142508;28;20362;-59
2024/01/02 04:25:24;;;;;;;;;;;;;;;;;;5126531;28;19968;-59
2024/01/02 04:27:55;;;;;;;;;;;;;;;;;;5126309;28;19922;-59
2024/01/02 04:30:26;;;;;;;;;;;;;;;;;;5125734;28;20408;-59
2024/01/02 04:32:57;;;;;;;;;;;;;;;;;;5142247;28;19922;-58
2024/01/02 04:35:28;;;;;;;;;;;;;;;;;;5128113;28;20329;-58
2024/01/02 04:37:59;;;;;;;;;;;;;;;;;;5147197;28;19980;-59
2024/01/02 04:40:30;;;;;;;;;;;;;;;;;;5141987;28;20362;-58
2024/01/02 04:43:01;;;;;;;;;;;;;;;;;;5138242;28;19976;-58
2024/01/02 04:45:32;;;;;;;;;;;;;;;;;;5139655;28;19926;-61
2024/01/02 04:48:03;;;;;;;;;;;;;;;;;;5141642;28;19976;-60
2024/01/02 04:50:34;;;;;;;;;;;;;;;;;;5142129;28;20273;-59
2024/01/02 04:53:05;;;;;;;;;;;;;;;;;;5147860;28;19922;-58
2024/01/02 04:55:36;;;;;;;;;;;;;;;;;;5141872;28;19922;-58
2024/01/02 04:58:07;;;;;;;;;;;;;;;;;;5125607;28;19973;-59
2024/01/02 05:00:39;;;;;;;;;;;;;;;;;;5141518;28;19918;-59
2024/01/02 05:03:10;;;;;;;;;;;;;;;;;;5125783;28;20266;-59
2024/01/02 05:05:41;;;;;;;;;;;;;;;;;;5140850;28;19929;-58
2024/01/02 05:08:12;;;;;;;;;;;;;;;;;;5125637;28;19918;-58
2024/01/02 05:10:43;;;;;;;;;;;;;;;;;;5141191;28;20017;-59
2024/01/02 05:13:14;;;;;;;;;;;;;;;;;;5133812;28;19925;-59
2024/01/02 05:15:45;;;;;;;;;;;;;;;;;;5133559;28;19922;-58
2024/01/02 05:18:16;;;;;;;;;;;;;;;;;;5158302;28;19968;-59
2024/01/02 05:20:47;;;;;;;;;;;;;;;;;;5155118;28;19922;-58
2024/01/02 05:23:18;;;;;;;;;;;;;;;;;;5125517;28;19914;-58
2024/01/02 05:25:49;;;;;;;;;;;;;;;;;;5126167;28;19926;-58
2024/01/02 05:28:20;;;;;;;;;;;;;;;;;;5126049;28;19922;-57
2024/01/02 05:30:51;;;;;;;;;;;;;;;;;;5133791;28;19933;-57
2024/01/02 05:33:22;;;;;;;;;;;;;;;;;;5130219;28;19951;-58
2024/01/02 05:35:53;;;;;;;;;;;;;;;;;;5150038;28;19969;-57
2024/01/02 05:38:24;;;;;;;;;;;;;;;;;;5124709;28;20353;-57
2024/01/02 05:40:55;;;;;;;;;;;;;;;;;;5141350;28;19984;-58
2024/01/02 05:43:26;;;;;;;;;;;;;;;;;;5145886;28;19945;-58
2024/01/02 05:45:57;;;;;;;;;;;;;;;;;;5143296;28;19922;-57
2024/01/02 05:48:28;;;;;;;;;;;;;;;;;;5141157;28;19925;-57
2024/01/02 05:50:59;;;;;;;;;;;;;;;;;;5125415;28;19941;-57
2024/01/02 05:53:30;;;;;;;;;;;;;;;;;;5146080;28;20009;-57
2024/01/02 05:56:01;;;;;;;;;;;;;;;;;;5142882;28;20413;-57
2024/01/02 05:58:32;;;;;;;;;;;;;;;;;;5143435;28;20005;-58
2024/01/02 06:01:03;;;;;;;;;;;;;;;;;;5143905;28;20010;-57
2024/01/02 06:03:35;;;;;;;;;;;;;;;;;;5144629;28;19922;-57
2024/01/02 06:06:06;;;;;;;;;;;;;;;;;;5129040;28;19926;-58
2024/01/02 06:08:36;;;;;;;;;;;;;;;;;;5146512;28;20424;-57
2024/01/02 06:11:08;;;;;;;;;;;;;;;;;;5144714;28;19945;-57
2024/01/02 06:13:38;;;;;;;;;;;;;;;;;;5144961;28;19925;-57
2024/01/02 06:16:10;;;;;;;;;;;;;;;;;;5145189;28;19918;-57
2024/01/02 06:18:41;;;;;;;;;;;;;;;;;;5145172;28;19914;-56
2024/01/02 06:21:12;;;;;;;;;;;;;;;;;;5144742;28;19918;-57
2024/01/02 06:23:43;;;;;;;;;;;;;;;;;;5145203;28;19918;-57
2024/01/02 06:26:14;;;;;;;;;;;;;;;;;;5144374;28;19933;-58
2024/01/02 06:28:45;;;;;;;;;;;;;;;;;;5141045;28;19925;-59
2024/01/02 06:31:16;;;;;;;;;;;;;;;;;;5144807;28;19922;-57
2024/01/02 06:33:47;;;;;;;;;;;;;;;;;;5144555;28;19918;-61
2024/01/02 06:36:18;;;;;;;;;;;;;;;;;;5129333;28;20285;-61
2024/01/02 06:38:49;;;;;;;;;;;;;;;;;;5144232;28;19918;-62
2024/01/02 06:41:20;;;;;;;;;;;;;;;;;;5144594;28;19922;-61
2024/01/02 06:43:51;;;;;;;;;;;;;;;;;;5128048;28;19918;-62
2024/01/02 06:46:22;;;;;;;;;;;;;;;;;;5144287;28;19949;-61
2024/01/02 06:48:53;;;;;;;;;;;;;;;;;;5144311;28;19972;-61
2024/01/02 06:51:26;;;;;;;;;;;;;;;;;;5144801;28;19918;-61
2024/01/02 06:53:57;;;;;;;;;;;;;;;;;;5160370;28;19934;-61
2024/01/02 06:56:28;;;;;;;;;;;;;;;;;;5143911;28;20373;-58
2024/01/02 06:58:59;;;;;;;;;;;;;;;;;;5128238;28;19922;-58
2024/01/02 07:01:30;;;;;;;;;;;;;;;;;;5145395;28;20022;-58
2024/01/02 07:04:02;;;;;;;;;;;;;;;;;;5148870;28;19922;-58
2024/01/02 07:06:32;;;;;;;;;;;;;;;;;;5142676;28;19925;-58
2024/01/02 07:09:04;;;;;;;;;;;;;;;;;;5144675;28;20288;-58
2024/01/02 07:11:35;;;;;;;;;;;;;;;;;;5144063;28;20401;-58
2024/01/02 07:14:06;;;;;;;;;;;;;;;;;;5144111;28;20033;-58
2024/01/02 07:16:37;;;;;;;;;;;;;;;;;;5143923;28;19922;-58
2024/01/02 07:19:08;;;;;;;;;;;;;;;;;;5141458;28;19919;-58
2024/01/02 07:21:39;;;;;;;;;;;;;;;;;;5143628;28;20000;-58
2024/01/02 07:24:10;;;;;;;;;;;;;;;;;;5143600;28;19918;-58
2024/01/02 07:26:41;;;;;;;;;;;;;;;;;;5139923;28;19989;-58
2024/01/02 07:29:12;;;;;;;;;;;;;;;;;;5143787;28;20000;-58
2024/01/02 07:31:43;;;;;;;;;;;;;;;;;;5143767;28;19918;-58
2024/01/02 07:34:14;;;;;;;;;;;;;;;;;;5127001;28;20305;-59
2024/01/02 07:36:45;;;;;;;;;;;;;;;;;;5139923;28;19945;-58
2024/01/02 07:39:16;;;;;;;;;;;;;;;;;;5143034;28;19924;-58
2024/01/02 07:41:47;;;;;;;;;;;;;;;;;;5143139;28;20377;-58
2024/01/02 07:44:18;;;;;;;;;;;;;;;;;;5127528;28;19925;-57
2024/01/02 07:46:49;;;;;;;;;;;;;;;;;;5143101;28;19945;-58
2024/01/02 07:49:20;;;;;;;;;;;;;;;;;;5127527;28;19980;-57
2024/01/02 07:51:51;;;;;;;;;;;;;;;;;;5130927;28;19917;-57
2024/01/02 07:54:22;;;;;;;;;;;;;;;;;;5145241;28;20294;-57
2024/01/02 07:56:53;;;;;;;;;;;;;;;;;;5143044;28;19997;-63
2024/01/02 07:59:25;;;;;;;;;;;;;;;;;;5142762;28;20396;-63
2024/01/02 08:01:56;;;;;;;;;;;;;;;;;;5142959;28;19922;-62
2024/01/02 08:04:29;;;;;;;;;;;;;;;;;;5126749;28;19953;-62
2024/01/02 08:07:01;;;;;;;;;;;;;;;;;;5122732;28;19981;-65
2024/01/02 08:09:33;;;;;;;;;;;;;;;;;;5143767;28;19924;-64
2024/01/02 08:12:04;;;;;;;;;;;;;;;;;;5142904;28;20012;-65
2024/01/02 08:14:35;;;;;;;;;;;;;;;;;;5142410;28;20017;-63
2024/01/02 08:17:06;;;;;;;;;;;;;;;;;;5142875;28;19922;-64
2024/01/02 08:19:37;;;;;;;;;;;;;;;;;;5142101;28;19929;-66
2024/01/02 08:22:08;;;;;;;;;;;;;;;;;;5142431;28;20317;-63
2024/01/02 08:24:39;;;;;;;;;;;;;;;;;;5122024;28;19922;-62
2024/01/02 08:27:10;;;;;;;;;;;;;;;;;;5135126;28;19926;-61
2024/01/02 08:29:41;;;;;;;;;;;;;;;;;;5141935;28;19925;-65
2024/01/02 08:32:12;;;;;;;;;;;;;;;;;;5125786;28;19928;-63
2024/01/02 08:34:43;;;;;;;;;;;;;;;;;;5134626;28;20005;-64
2024/01/02 08:37:14;;;;;;;;;;;;;;;;;;5141633;28;20311;-64
2024/01/02 08:39:45;;;;;;;;;;;;;;;;;;5125942;28;19925;-64
2024/01/02 08:42:16;;;;;;;;;;;;;;;;;;5141598;28;19922;-64
2024/01/02 08:44:47;;;;;;;;;;;;;;;;;;5138147;28;19918;-63
2024/01/02 08:47:18;;;;;;;;;;;;;;;;;;5141440;28;19918;-64
2024/01/02 08:49:49;;;;;;;;;;;;;;;;;;5125705;28;19921;-63
2024/01/02 08:52:20;;;;;;;;;;;;;;;;;;5126167;28;20361;-63
2024/01/02 08:54:51;;;;;;;;;;;;;;;;;;5141573;28;19929;-63
2024/01/02 08:57:22;;;;;;;;;;;;;;;;;;5141839;28;20262;-58
2024/01/02 08:59:53;;;;;;;;;;;;;;;;;;5125911;28;19980;-58
2024/01/02 09:02:24;;;;;;;;;;;;;;;;;;5141743;28;19926;-58
2024/01/02 09:04:55;;;;;;;;;;;;;;;;;;5141624;28;19921;-58
2024/01/02 09:07:26;;;;;;;;;;;;;;;;;;5141766;28;19925;-57
2024/01/02 09:09:57;;;;;;;;;;;;;;;;;;5141736;28;19922;-58
2024/01/02 09:12:28;;;;;;;;;;;;;;;;;;5141683;28;19918;-59
2024/01/02 09:14:59;;;;;;;;;;;;;;;;;;5141756;28;19918;-57
2024/01/02 09:17:30;;;;;;;;;;;;;;;;;;5141814;28;20406;-57
2024/01/02 09:20:01;;;;;;;;;;;;;;;;;;5142454;28;20370;-57
2024/01/02 09:22:32;;;;;;;;;;;;;;;;;;5125725;28;20009;-58
2024/01/02 09:25:03;;;;;;;;;;;;;;;;;;5122245;28;19926;-59
2024/01/02 09:27:34;;;;;;;;;;;;;;;;;;5138418;28;19918;-59
2024/01/02 09:30:05;;;;;;;;;;;;;;;;;;5127356;28;19980;-57
2024/01/02 09:32:36;;;;;;;;;;;;;;;;;;5129113;28;19922;-57
2024/01/02 09:35:07;;;;;;;;;;;;;;;;;;5126518;28;19922;-58
2024/01/02 09:37:38;;;;;;;;;;;;;;;;;;5145225;28;19997;-59
2024/01/02 09:40:09;;;;;;;;;;;;;;;;;;5129377;28;20075;-59
2024/01/02 09:42:41;;;;;;;;;;;;;;;;;;5141804;28;19918;-59
2024/01/02 09:45:12;;;;;;;;;;;;;;;;;;5144934;28;19969;-58
2024/01/02 09:47:43;;;;;;;;;;;;;;;;;;5129571;28;19976;-61
2024/01/02 09:50:14;;;;;;;;;;;;;;;;;;5140594;28;20354;-60
2024/01/02 09:52:45;;;;;;;;;;;;;;;;;;5129794;28;19918;-59
2024/01/02 09:55:16;;;;;;;;;;;;;;;;;;5145199;28;19925;-59
2024/01/02 09:57:47;;;;;;;;;;;;;;;;;;5145641;28;19918;-59
2024/01/02 10:00:18;;;;;;;;;;;;;;;;;;5145079;28;19921;-60
2024/01/02 10:02:49;;;;;;;;;;;;;;;;;;5146781;28;19917;-58
2024/01/02 10:05:20;;;;;;;;;;;;;;;;;;5154099;28;19922;-58
2024/01/02 10:07:51;;;;;;;;;;;;;;;;;;5145166;28;19918;-59
2024/01/02 10:10:22;;;;;;;;;;;;;;;;;;5144853;28;19922;-57
2024/01/02 10:12:53;;;;;;;;;;;;;;;;;;5145311;28;19917;-57
2024/01/02 10:15:25;;;;;;;;;;;;;;;;;;5129311;28;20276;-57
2024/01/02 10:17:56;;;;;;;;;;;;;;;;;;5145164;28;20297;-57
2024/01/02 10:20:27;;;;;;;;;;;;;;;;;;5144656;28;19996;-57
2024/01/02 10:22:58;;;;;;;;;;;;;;;;;;5144824;28;20024;-57
2024/01/02 10:25:29;;;;;;;;;;;;;;;;;;5143227;28;20480;-59
2024/01/02 10:28:02;;;;;;;;;;;;;;;;;;5128737;28;19928;-58
2024/01/02 10:30:33;;;;;;;;;;;;;;;;;;5128799;28;19973;-56
2024/01/02 10:33:04;;;;;;;;;;;;;;;;;;5144873;28;19918;-57
2024/01/02 10:35:35;;;;;;;;;;;;;;;;;;5144947;28;20361;-57
2024/01/02 10:38:06;;;;;;;;;;;;;;;;;;5128464;28;19976;-57
2024/01/02 10:40:37;;;;;;;;;;;;;;;;;;5144106;28;20341;-58
2024/01/02 10:43:08;;;;;;;;;;;;;;;;;;5127987;28;19969;-59
2024/01/02 10:45:39;;;;;;;;;;;;;;;;;;5126467;28;19921;-58
2024/01/02 10:48:10;;;;;;;;;;;;;;;;;;5143924;28;19924;-58
2024/01/02 10:50:41;;;;;;;;;;;;;;;;;;5124224;28;19922;-59
2024/01/02 10:53:12;;;;;;;;;;;;;;;;;;5138563;28;19988;-59
2024/01/02 10:55:43;;;;;;;;;;;;;;;;;;5144241;28;20067;-58
2024/01/02 10:58:17;;;;;;;;;;;;;;;;;;5143767;28;20421;-60
2024/01/02 11:00:48;;;;;;;;;;;;;;;;;;5124496;28;19918;-58
2024/01/02 11:03:19;;;;;;;;;;;;;;;;;;5142007;28;19922;-58
2024/01/02 11:05:52;;;;;;;;;;;;;;;;;;5139438;28;19926;-59
2024/01/02 11:08:23;;;;;;;;;;;;;;;;;;5144904;28;20072;-59
2024/01/02 11:10:54;;;;;;;;;;;;;;;;;;5123528;28;19925;-62
2024/01/02 11:13:25;;;;;;;;;;;;;;;;;;5143799;28;20020;-59
2024/01/02 11:15:56;;;;;;;;;;;;;;;;;;5143855;28;20376;-58
2024/01/02 11:18:27;;;;;;;;;;;;;;;;;;5143725;28;19973;-59
2024/01/02 11:20:58;;;;;;;;;;;;;;;;;;5143629;28;20397;-58
2024/01/02 11:23:29;;;;;;;;;;;;;;;;;;5143734;28;20004;-59
2024/01/02 11:26:01;;;;;;;;;;;;;;;;;;5143445;28;19922;-59
2024/01/02 11:28:32;;;;;;;;;;;;;;;;;;5143304;28;19922;-61
2024/01/02 11:31:03;;;;;;;;;;;;;;;;;;5143046;28;20389;-60
2024/01/02 11:33:34;;;;;;;;;;;;;;;;;;5143472;28;19929;-61
2024/01/02 11:36:05;;;;;;;;;;;;;;;;;;5143326;28;19925;-61
2024/01/02 11:38:36;;;;;;;;;;;;;;;;;;5143550;28;19972;-61
2024/01/02 11:41:07;;;;;;;;;;;;;;;;;;5143023;28;19968;-60
2024/01/02 11:43:38;;;;;;;;;;;;;;;;;;5143195;28;20005;-60
2024/01/02 11:46:09;;;;;;;;;;;;;;;;;;5143189;28;20366;-60
2024/01/02 11:48:41;;;;;;;;;;;;;;;;;;5123887;28;19950;-61
2024/01/02 11:51:12;;;;;;;;;;;;;;;;;;5143324;28;19922;-60
2024/01/02 11:53:43;;;;;;;;;;;;;;;;;;5126536;28;20063;-59
2024/01/02 11:56:14;;;;;;;;;;;;;;;;;;5143024;28;19926;-60
2024/01/02 11:58:45;;;;;;;;;;;;;;;;;;5143009;28;19972;-61
2024/01/02 12:01:17;;;;;;;;;;;;;;;;;;5142683;28;19926;-60
2024/01/02 12:03:48;;;;;;;;;;;;;;;;;;5126727;28;19918;-60
2024/01/02 12:06:19;;;;;;;;;;;;;;;;;;5142530;28;19973;-60
2024/01/02 12:08:52;;;;;;;;;;;;;;;;;;5140584;28;20393;-59
2024/01/02 12:11:23;;;;;;;;;;;;;;;;;;5142486;28;19917;-59
2024/01/02 12:13:54;;;;;;;;;;;;;;;;;;5126702;28;19921;-59
2024/01/02 12:16:25;;;;;;;;;;;;;;;;;;5126507;28;20023;-62
2024/01/02 12:18:56;;;;;;;;;;;;;;;;;;5144632;28;20665;-61
2024/01/02 12:21:27;;;;;;;;;;;;;;;;;;5142429;28;19918;-61
2024/01/02 12:23:58;;;;;;;;;;;;;;;;;;5142482;28;19918;-62
2024/01/02 12:26:29;;;;;;;;;;;;;;;;;;5126152;28;19933;-62
2024/01/02 12:29:00;;;;;;;;;;;;;;;;;;5142247;28;20322;-61
2024/01/02 12:31:31;;;;;;;;;;;;;;;;;;5142693;28;19922;-62
2024/01/02 12:34:02;;;;;;;;;;;;;;;;;;5142035;28;19941;-61
2024/01/02 12:36:33;;;;;;;;;;;;;;;;;;5126661;28;19921;-61
2024/01/02 12:39:05;;;;;;;;;;;;;;;;;;5142071;28;19918;-60
2024/01/02 12:41:36;;;;;;;;;;;;;;;;;;5142438;28;20308;-62
2024/01/02 12:44:07;;;;;;;;;;;;;;;;;;5142188;28;20328;-61
2024/01/02 12:46:39;;;;;;;;;;;;;;;;;;5123205;28;19934;-61
2024/01/02 12:49:10;;;;;;;;;;;;;;;;;;5126026;28;19925;-61
2024/01/02 12:51:41;;;;;;;;;;;;;;;;;;5141870;28;20012;-61
2024/01/02 12:54:12;;;;;;;;;;;;;;;;;;5142062;28;20060;-61
2024/01/02 12:56:43;;;;;;;;;;;;;;;;;;5141741;28;20369;-61
2024/01/02 12:59:14;;;;;;;;;;;;;;;;;;5142230;28;19918;-60
2024/01/02 13:01:45;;;;;;;;;;;;;;;;;;5141670;28;19918;-61
2024/01/02 13:04:16;;;;;;;;;;;;;;;;;;5125305;28;19922;-61
2024/01/02 13:06:47;;;;;;;;;;;;;;;;;;5137815;28;19926;-61
2024/01/02 13:09:18;;;;;;;;;;;;;;;;;;5134857;28;19918;-61
2024/01/02 13:11:49;;;;;;;;;;;;;;;;;;5142193;28;19929;-61
2024/01/02 13:14:20;;;;;;;;;;;;;;;;;;5141564;28;19925;-59
2024/01/02 13:16:51;;;;;;;;;;;;;;;;;;5141886;28;19918;-61
2024/01/02 13:19:22;;;;;;;;;;;;;;;;;;5141613;28;20230;-60
2024/01/02 13:21:53;;;;;;;;;;;;;;;;;;5142046;28;19925;-62
2024/01/02 13:24:24;;;;;;;;;;;;;;;;;;5125530;28;19918;-60
2024/01/02 13:26:55;;;;;;;;;;;;;;;;;;5125656;28;19922;-60
2024/01/02 13:29:26;;;;;;;;;;;;;;;;;;5125324;28;19979;-61
2024/01/02 13:31:57;;;;;;;;;;;;;;;;;;5141756;28;19922;-59
2024/01/02 13:34:29;;;;;;;;;;;;;;;;;;5118638;28;19924;-60
2024/01/02 13:37:00;;;;;;;;;;;;;;;;;;5123019;28;20188;-61
2024/01/02 13:39:32;;;;;;;;;;;;;;;;;;5125605;28;19922;-60
2024/01/02 13:42:03;;;;;;;;;;;;;;;;;;5141581;28;19933;-62
2024/01/02 13:44:34;;;;;;;;;;;;;;;;;;5141665;28;19918;-57
2024/01/02 13:47:05;;;;;;;;;;;;;;;;;;5141486;28;20397;-59
2024/01/02 13:49:36;;;;;;;;;;;;;;;;;;5141804;28;20473;-59
2024/01/02 13:52:07;;;;;;;;;;;;;;;;;;5125780;28;20436;-64
2024/01/02 13:54:38;;;;;;;;;;;;;;;;;;5141560;28;19918;-65
2024/01/02 13:57:09;;;;;;;;;;;;;;;;;;5141359;28;19929;-58
2024/01/02 13:59:40;;;;;;;;;;;;;;;;;;5141055;28;19945;-58
2024/01/02 14:02:11;;;;;;;;;;;;;;;;;;5141258;28;19925;-60
2024/01/02 14:04:42;;;;;;;;;;;;;;;;;;5141248;28;19922;-59
2024/01/02 14:07:13;;;;;;;;;;;;;;;;;;5124376;28;20671;-59
2024/01/02 14:09:44;;;;;;;;;;;;;;;;;;5125409;28;19918;-60
2024/01/02 14:12:15;;;;;;;;;;;;;;;;;;5139956;28;20381;-59
2024/01/02 14:14:46;;;;;;;;;;;;;;;;;;5140335;28;19918;-59
2024/01/02 14:17:17;;;;;;;;;;;;;;;;;;5127765;28;19924;-59
2024/01/02 14:19:52;;;;;;;;;;;;;;;;;;5146409;28;20348;-59
2024/01/02 14:22:23;;;;;;;;;;;;;;;;;;5127643;28;19925;-59
2024/01/02 14:24:54;;;;;;;;;;;;;;;;;;5144266;28;20293;-59
2024/01/02 14:27:25;;;;;;;;;;;;;;;;;;5144459;28;20417;-59
2024/01/02 14:29:56;;;;;;;;;;;;;;;;;;5143434;28;19928;-59
2024/01/02 14:32:27;;;;;;;;;;;;;;;;;;5143709;28;20001;-58
2024/01/02 14:34:58;;;;;;;;;;;;;;;;;;5126734;28;20428;-60
2024/01/02 14:37:29;;;;;;;;;;;;;;;;;;5127675;28;19922;-58
2024/01/02 14:40:00;;;;;;;;;;;;;;;;;;5143502;28;19925;-58
2024/01/02 14:42:31;;;;;;;;;;;;;;;;;;5127814;28;19918;-59
2024/01/02 14:45:02;;;;;;;;;;;;;;;;;;5143638;28;19921;-61
2024/01/02 14:47:33;;;;;;;;;;;;;;;;;;5144045;28;19922;-59
2024/01/02 14:50:04;;;;;;;;;;;;;;;;;;5143334;28;20350;-60
2024/01/02 14:52:35;;;;;;;;;;;;;;;;;;5142059;28;19937;-61
2024/01/02 14:55:07;;;;;;;;;;;;;;;;;;5143085;28;20413;-58
2024/01/02 14:57:39;;;;;;;;;;;;;;;;;;5127520;28;19924;-59
2024/01/02 15:00:12;;;;;;;;;;;;;;;;;;5142866;28;19918;-60
2024/01/02 15:02:43;;;;;;;;;;;;;;;;;;5143352;28;19922;-60
2024/01/02 15:05:13;;;;;;;;;;;;;;;;;;5126282;28;20277;-62
2024/01/02 15:07:44;;;;;;;;;;;;;;;;;;5143793;28;19918;-60
2024/01/02 15:10:17;;;;;;;;;;;;;;;;;;5142447;28;19993;-61
2024/01/02 15:12:48;;;;;;;;;;;;;;;;;;5143865;28;19925;-61
2024/01/02 15:15:21;;;;;;;;;;;;;;;;;;5128220;28;20266;-59
2024/01/02 15:17:53;;;;;;;;;;;;;;;;;;5143920;28;19926;-59
2024/01/02 15:20:24;;;;;;;;;;;;;;;;;;5128031;28;20273;-58
2024/01/02 15:22:55;;;;;;;;;;;;;;;;;;5142745;28;19925;-57
2024/01/02 15:25:28;;;;;;;;;;;;;;;;;;5126815;28;20266;-58
2024/01/02 15:27:59;;;;;;;;;;;;;;;;;;5142281;28;19926;-58
2024/01/02 15:30:30;;;;;;;;;;;;;;;;;;5127528;28;20051;-58
2024/01/02 15:33:01;;;;;;;;;;;;;;;;;;5126019;28;19926;-57
2024/01/02 15:35:32;;;;;;;;;;;;;;;;;;5129379;28;19918;-56
2024/01/02 15:38:04;;;;;;;;;;;;;;;;;;5146346;28;20272;-57
2024/01/02 15:40:39;;;;;;;;;;;;;;;;;;5140696;28;19918;-57
2024/01/02 15:43:10;;;;;;;;;;;;;;;;;;5127854;28;19922;-57
2024/01/02 15:45:41;;;;;;;;;;;;;;;;;;5143443;28;19937;-57
2024/01/02 15:48:12;;;;;;;;;;;;;;;;;;5136897;28;19977;-57
2024/01/02 15:50:43;;;;;;;;;;;;;;;;;;5143558;28;19961;-58
2024/01/02 15:53:14;;;;;;;;;;;;;;;;;;5143387;28;19924;-56
2024/01/02 15:55:45;;;;;;;;;;;;;;;;;;5143657;28;19918;-59
2024/01/02 15:58:16;;;;;;;;;;;;;;;;;;5146106;28;19918;-61
2024/01/02 16:00:47;;;;;;;;;;;;;;;;;;5142363;28;20004;-58
2024/01/02 16:03:18;;;;;;;;;;;;;;;;;;5127008;28;19925;-56
2024/01/02 16:05:49;;;;;;;;;;;;;;;;;;5142491;28;19980;-59
2024/01/02 16:08:20;;;;;;;;;;;;;;;;;;5127387;28;19977;-60
2024/01/02 16:10:51;;;;;;;;;;;;;;;;;;5127082;28;19922;-58
2024/01/02 16:13:23;;;;;;;;;;;;;;;;;;5140630;28;20254;-59
2024/01/02 16:15:54;;;;;;;;;;;;;;;;;;5141928;28;19914;-60
2024/01/02 16:18:26;;;;;;;;;;;;;;;;;;5141450;28;20025;-59
2024/01/02 16:20:57;;;;;;;;;;;;;;;;;;5126484;28;20409;-59
2024/01/02 16:23:28;;;;;;;;;;;;;;;;;;5142071;28;19992;-60
2024/01/02 16:25:59;;;;;;;;;;;;;;;;;;5142908;28;19984;-60
2024/01/02 16:28:30;;;;;;;;;;;;;;;;;;5127050;28;19918;-59
2024/01/02 16:31:01;;;;;;;;;;;;;;;;;;5142794;28;19922;-60
2024/01/02 16:33:32;;;;;;;;;;;;;;;;;;5127339;28;19972;-59
2024/01/02 16:36:03;;;;;;;;;;;;;;;;;;5142839;28;20342;-59
2024/01/02 16:38:36;;;;;;;;;;;;;;;;;;5123644;28;19965;-61
2024/01/02 16:41:07;;;;;;;;;;;;;;;;;;5142711;28;20396;-60
2024/01/02 16:43:38;;;;;;;;;;;;;;;;;;5142242;28;19965;-61
2024/01/02 16:46:09;;;;;;;;;;;;;;;;;;5139408;28;20192;-60
2024/01/02 16:48:40;;;;;;;;;;;;;;;;;;5126093;28;20005;-59
2024/01/02 16:51:11;;;;;;;;;;;;;;;;;;5141164;28;20001;-59
2024/01/02 16:53:43;;;;;;;;;;;;;;;;;;5125896;28;20317;-60
2024/01/02 16:56:14;;;;;;;;;;;;;;;;;;5141754;28;19918;-60
2024/01/02 16:58:46;;;;;;;;;;;;;;;;;;5158031;28;20048;-61
2024/01/02 17:01:18;;;;;;;;;;;;;;;;;;5141363;28;19926;-60
2024/01/02 17:03:49;;;;;;;;;;;;;;;;;;5141162;28;19925;-60
2024/01/02 17:06:20;;;;;;;;;;;;;;;;;;5140939;28;20022;-58
2024/01/02 17:08:51;;;;;;;;;;;;;;;;;;5139572;28;19918;-58
2024/01/02 17:11:22;;;;;;;;;;;;;;;;;;5123352;28;19918;-58